createdAt,value
2023-04-08T00:04:14.873Z,15.40
2023-04-08T00:14:17.660Z,16.23
2023-04-08T00:24:21.607Z,16.65
2023-04-08T00:34:25.880Z,16.08
2023-04-08T00:44:45.015Z,16.60
2023-04-08T00:55:08.735Z,18.40
2023-04-08T01:05:41.939Z,19.48
2023-04-08T01:27:07.223Z,18.95
2023-04-08T01:37:18.208Z,18.33
2023-04-08T01:48:22.500Z,17.95
2023-04-08T01:58:28.203Z,19.70
2023-04-08T02:08:30.070Z,17.25
2023-04-08T02:18:35.866Z,17.02
2023-04-08T02:28:41.598Z,15.00
2023-04-08T02:38:49.334Z,16.65
2023-04-08T02:48:54.289Z,16.40
2023-04-08T02:59:00.136Z,15.57
2023-04-08T03:09:02.065Z,15.23
2023-04-08T03:19:23.194Z,15.57
2023-04-08T03:29:25.118Z,14.25
2023-04-08T03:39:59.424Z,16.27
2023-04-08T03:50:01.349Z,16.80
2023-04-08T04:00:03.814Z,14.68
2023-04-08T04:10:06.257Z,17.17
2023-04-08T04:20:08.800Z,15.23
2023-04-08T04:30:10.994Z,15.00
2023-04-08T04:40:13.225Z,15.30
2023-04-08T04:50:54.494Z,19.40
2023-04-08T05:01:00.717Z,20.08
2023-04-08T05:11:02.638Z,15.77
2023-04-08T05:21:04.710Z,14.73
2023-04-08T05:31:06.806Z,15.20
2023-04-08T05:41:08.852Z,15.45
2023-04-08T05:51:15.306Z,16.88
2023-04-08T06:01:17.324Z,13.32
2023-04-08T06:11:19.252Z,14.07
2023-04-08T06:21:21.788Z,12.43
2023-04-08T06:31:23.716Z,12.25
2023-04-08T06:41:25.718Z,11.82
2023-04-08T06:51:34.709Z,11.82
2023-04-08T07:01:36.800Z,12.32
2023-04-08T07:11:38.733Z,11.30
2023-04-08T07:21:41.886Z,12.27
2023-04-08T07:31:44.635Z,11.93
2023-04-08T07:41:47.653Z,11.55
2023-04-08T07:51:56.127Z,11.25
2023-04-08T08:02:04.474Z,10.80
2023-04-08T08:12:14.597Z,10.75
2023-04-08T08:22:16.811Z,10.15
2023-04-08T08:32:19.299Z,12.23
2023-04-08T08:42:23.678Z,10.18
2023-04-08T08:52:51.887Z,10.00
2023-04-08T09:03:14.216Z,9.43
2023-04-08T09:13:17.641Z,8.82
2023-04-08T09:23:19.730Z,9.13
2023-04-08T09:33:35.451Z,9.20
2023-04-08T09:44:02.486Z,10.52
2023-04-08T09:54:14.286Z,9.18
2023-04-08T10:04:19.640Z,9.48
2023-04-08T10:14:22.708Z,9.50
2023-04-08T10:24:34.647Z,7.50
2023-04-08T10:34:52.884Z,10.48
2023-04-08T10:44:54.978Z,7.78
2023-04-08T10:54:57.100Z,11.02
2023-04-08T11:05:00.383Z,5.43
2023-04-08T11:15:06.585Z,7.72
2023-04-08T11:25:15.351Z,7.07
2023-04-08T11:35:17.466Z,8.73
2023-04-08T11:45:22.518Z,8.93
2023-04-08T11:55:49.237Z,7.65
2023-04-08T12:05:51.305Z,4.88
2023-04-08T12:16:00.257Z,7.57
2023-04-08T12:26:02.586Z,8.10
2023-04-08T12:36:04.793Z,5.68
2023-04-08T12:46:06.972Z,4.00
2023-04-08T12:56:09.013Z,6.18
2023-04-08T13:06:34.689Z,5.05
2023-04-08T13:16:37.330Z,4.43
2023-04-08T13:26:39.267Z,2.25
2023-04-08T13:36:41.180Z,5.60
2023-04-08T13:46:43.194Z,3.20
2023-04-08T13:56:47.284Z,5.72
2023-04-08T14:07:02.821Z,5.45
2023-04-08T14:17:04.899Z,5.47
2023-04-08T14:27:07.918Z,7.15
2023-04-08T14:37:20.808Z,5.45
2023-04-08T14:47:27.277Z,4.90
2023-04-08T14:57:29.717Z,5.70
2023-04-08T15:07:32.197Z,6.35
2023-04-08T15:17:45.066Z,5.57
2023-04-08T15:27:47.161Z,4.38
2023-04-08T15:37:49.130Z,5.28
2023-04-08T15:48:04.780Z,7.00
2023-04-08T15:58:16.792Z,6.60
2023-04-08T16:08:20.364Z,6.30
2023-04-08T16:18:22.511Z,6.18
2023-04-08T16:28:28.103Z,7.13
2023-04-08T16:38:33.408Z,9.45
2023-04-08T16:48:45.718Z,8.90
2023-04-08T16:58:47.630Z,7.28
2023-04-08T17:08:50.957Z,9.82
2023-04-08T17:18:53.105Z,8.13
2023-04-08T17:28:56.256Z,8.82
2023-04-08T17:39:00.322Z,9.18
2023-04-08T17:49:14.458Z,9.10
2023-04-08T17:59:16.611Z,5.47
2023-04-08T18:09:22.704Z,6.32
2023-04-08T18:19:37.818Z,5.15
2023-04-08T18:29:39.815Z,5.57
2023-04-08T18:39:41.901Z,7.53
2023-04-08T18:49:46.636Z,8.50
2023-04-08T19:00:10.911Z,9.23
2023-04-08T19:10:13.876Z,9.27
2023-04-08T19:20:25.930Z,10.00
2023-04-08T19:30:27.889Z,12.75
2023-04-08T19:40:29.960Z,16.50
2023-04-08T19:50:37.870Z,15.05
2023-04-08T20:00:40.338Z,14.82
2023-04-08T20:10:42.686Z,12.05
2023-04-08T20:20:45.990Z,22.85
2023-04-08T20:30:48.348Z,32.95
2023-04-08T20:40:50.362Z,14.50
2023-04-08T20:50:52.275Z,17.77
2023-04-08T21:01:00.656Z,11.57
2023-04-08T21:11:08.541Z,11.27
2023-04-08T21:21:14.324Z,11.98
2023-04-08T21:31:18.451Z,9.82
2023-04-08T21:41:30.405Z,10.32
2023-04-08T21:51:36.129Z,11.57
2023-04-08T22:01:43.984Z,16.55
2023-04-08T22:11:46.239Z,13.93
2023-04-08T22:21:51.399Z,12.48
2023-04-08T22:31:53.442Z,11.57
2023-04-08T22:41:56.071Z,13.07
2023-04-08T22:52:15.699Z,10.85
2023-04-08T23:02:17.829Z,13.43
2023-04-08T23:12:19.964Z,11.35
2023-04-08T23:22:34.791Z,10.00
2023-04-08T23:32:36.760Z,9.52
2023-04-08T23:42:38.693Z,14.98
2023-04-08T23:53:06.052Z,11.43
